Lamont, Idaho
Current Conditions -  °F | °C
As of 6:32 PM on Saturday 20 Dec 2014 (Local Time) from KDIJ Reporting Station
Overcast Overcast  
Wind Chill: 24°   Ceiling: 2900
Heat Index: 32°   Visibility: 10mi
Dew Point: 27°   Wind: 9mph
Humidity: 80%   Direction: 170°S
Pressure: 29.96"   Gusts: NA
Location:  44.0126°N, 111.37°W
Report Text: KDIJ 210132Z AUTO 17008KT 10SM OVC029 00/M03 A2996 RMK AO2
Loading
Personal Weather Stations






























Interactive Weather Map New forecast layout! Learn more

10-Day Weather Forecast

Advertisements
Track Severe Weather on mobile